Time;durP1;ratioP1;P1;durP2;ratioP2;P2;SDS_P1;SDS_P2;PMS_P1;PMS_P2;Temp;Humidity;BMP_temperature;BMP_pressure;BME280_temperature;BME280_humidity;BME280_pressure;Samples;Min_cycle;Max_cycle;Signal;HPM_P1;HPM_P2
2021/12/25 00:00:06;;;;;;;38.17;18.10;;;;;;;3.19;100.00;100694.34;5055490;28;20444;-74
2021/12/25 00:02:34;;;;;;;44.13;18.50;;;;;;;3.14;100.00;100705.16;5053644;28;20035;-74
2021/12/25 00:04:59;;;;;;;44.47;19.20;;;;;;;3.07;100.00;100701.22;5055786;28;20091;-74
2021/12/25 00:07:24;;;;;;;53.63;19.77;;;;;;;3.01;100.00;100704.22;5054990;28;20033;-74
2021/12/25 00:09:50;;;;;;;56.63;20.70;;;;;;;2.97;100.00;100703.56;5055345;28;20035;-74
2021/12/25 00:12:15;;;;;;;52.60;20.77;;;;;;;2.92;100.00;100703.00;5055199;28;20492;-74
2021/12/25 00:14:41;;;;;;;51.42;21.13;;;;;;;2.89;100.00;100700.53;5055158;28;20370;-74
2021/12/25 00:17:06;;;;;;;50.53;22.52;;;;;;;2.87;100.00;100709.47;5055315;28;20445;-74
2021/12/25 00:19:31;;;;;;;65.07;23.00;;;;;;;2.84;100.00;100707.88;5053442;28;20064;-74
2021/12/25 00:21:57;;;;;;;61.10;22.65;;;;;;;2.82;100.00;100705.34;5037035;28;20036;-73
2021/12/25 00:24:23;;;;;;;70.80;24.08;;;;;;;2.80;100.00;100709.81;5054261;28;20059;-74
2021/12/25 00:29:36;;;;;;;81.93;27.15;;;;;;;2.73;100.00;100712.91;5054893;28;20382;-73
2021/12/25 00:34:47;;;;;;;69.88;25.48;;;;;;;2.64;100.00;100715.19;5054764;28;20112;-73
2021/12/25 00:37:13;;;;;;;73.30;26.33;;;;;;;2.61;100.00;100717.97;5054465;28;20044;-73
2021/12/25 00:39:38;;;;;;;76.82;25.45;;;;;;;2.59;100.00;100719.00;5053832;28;20036;-73
2021/12/25 00:42:06;;;;;;;57.33;24.13;;;;;;;2.55;100.00;100706.97;5053985;28;20033;-73
2021/12/25 00:44:33;;;;;;;68.70;24.80;;;;;;;2.52;100.00;100710.63;5052557;28;20102;-73
2021/12/25 00:46:59;;;;;;;57.63;23.52;;;;;;;2.44;100.00;100712.88;5054556;28;20059;-74
2021/12/25 00:49:25;;;;;;;65.25;25.17;;;;;;;2.41;100.00;100723.56;5053045;28;20100;-74
2021/12/25 00:51:51;;;;;;;61.90;24.30;;;;;;;2.39;100.00;100715.75;5054178;28;20037;-73
2021/12/25 00:54:16;;;;;;;72.85;25.88;;;;;;;2.35;100.00;100719.50;5054018;28;20421;-74
2021/12/25 00:56:42;;;;;;;64.38;25.70;;;;;;;2.36;100.00;100723.81;5053611;28;20037;-73
2021/12/25 00:59:08;;;;;;;67.55;25.20;;;;;;;2.35;100.00;100716.88;5054375;28;20068;-73
2021/12/25 01:01:35;;;;;;;62.53;26.10;;;;;;;2.32;100.00;100711.81;5053616;28;20119;-73
2021/12/25 01:04:00;;;;;;;67.78;26.60;;;;;;;2.29;100.00;100715.44;5053843;28;20036;-74
2021/12/25 01:06:26;;;;;;;70.88;26.42;;;;;;;2.27;100.00;100716.47;5053504;28;20487;-74
2021/12/25 01:08:51;;;;;;;71.00;26.10;;;;;;;2.25;100.00;100719.16;5053887;28;20033;-73
2021/12/25 01:11:17;;;;;;;69.95;25.70;;;;;;;2.23;100.00;100721.03;5053829;28;20044;-73
2021/12/25 01:13:49;;;;;;;72.85;26.63;;;;;;;2.23;100.00;100721.03;5053496;28;20083;-73
2021/12/25 01:36:37;;;;;;;63.63;25.35;;;;;;;2.08;100.00;100716.69;5053263;28;20045;-73
2021/12/25 01:50:07;;;;;;;58.78;23.52;;;;;;;2.00;100.00;100708.38;5053107;28;20124;-73
2021/12/25 01:52:33;;;;;;;58.08;23.00;;;;;;;1.97;100.00;100709.44;5052723;28;20044;-73
2021/12/25 01:55:04;;;;;;;50.55;22.50;;;;;;;1.91;100.00;100715.88;5053003;28;20029;-74
2021/12/25 01:57:31;;;;;;;53.67;23.08;;;;;;;1.89;100.00;100716.88;5052759;28;20032;-74
2021/12/25 01:59:58;;;;;;;54.28;24.15;;;;;;;1.86;100.00;100717.06;5052668;28;20033;-74
2021/12/25 02:02:24;;;;;;;57.17;23.98;;;;;;;1.83;100.00;100717.22;5052551;28;20025;-74
2021/12/25 02:04:50;;;;;;;58.05;25.35;;;;;;;1.79;100.00;100713.91;5052015;28;20041;-74
2021/12/25 02:07:16;;;;;;;61.67;24.92;;;;;;;1.79;100.00;100723.56;5052473;28;20044;-74
2021/12/25 02:09:41;;;;;;;49.08;23.83;;;;;;;1.74;100.00;100715.94;5052059;28;20436;-75
2021/12/25 02:12:08;;;;;;;52.63;23.75;;;;;;;1.74;100.00;100723.81;5052568;28;20033;-74
2021/12/25 02:14:34;;;;;;;61.85;24.00;;;;;;;1.71;100.00;100724.84;5052209;28;20093;-74
2021/12/25 02:17:13;;;;;;;56.78;24.15;;;;;;;1.69;100.00;100724.09;5052602;28;20040;-73
2021/12/25 02:19:47;;;;;;;45.92;21.88;;;;;;;1.65;100.00;100726.97;5051918;28;20036;-74
2021/12/25 02:22:13;;;;;;;47.22;23.58;;;;;;;1.64;100.00;100725.25;5051932;28;20082;-74
2021/12/25 02:24:38;;;;;;;48.58;23.42;;;;;;;1.58;100.00;100724.69;5051618;28;20123;-74
2021/12/25 02:27:05;;;;;;;46.40;21.83;;;;;;;1.55;100.00;100730.09;5052516;28;20024;-74
2021/12/25 02:29:32;;;;;;;50.78;23.33;;;;;;;1.53;100.00;100728.47;5050944;28;20021;-74
2021/12/25 02:31:58;;;;;;;47.75;23.60;;;;;;;1.50;100.00;100734.72;5051758;28;20040;-74
2021/12/25 02:34:24;;;;;;;44.90;22.58;;;;;;;1.51;100.00;100732.97;5052129;28;20039;-74
2021/12/25 02:36:49;;;;;;;41.00;22.00;;;;;;;1.47;100.00;100723.56;5051715;28;20032;-74
2021/12/25 02:39:15;;;;;;;39.35;21.23;;;;;;;1.44;100.00;100723.75;5052140;28;20029;-73
2021/12/25 02:41:42;;;;;;;43.45;22.67;;;;;;;1.40;100.00;100726.53;5051681;28;20111;-74
2021/12/25 02:44:07;;;;;;;38.20;21.50;;;;;;;1.36;100.00;100729.41;5052106;28;20053;-74
2021/12/25 02:46:33;;;;;;;38.53;20.65;;;;;;;1.31;100.00;100734.03;5050515;28;20496;-74
2021/12/25 02:48:59;;;;;;;37.17;19.85;;;;;;;1.28;100.00;100734.19;5051089;28;20044;-74
2021/12/25 02:51:25;;;;;;;35.83;19.05;;;;;;;1.25;100.00;100736.97;5051534;28;20405;-74
2021/12/25 02:53:50;;;;;;;30.45;17.88;;;;;;;1.21;100.00;100745.00;5051264;28;20040;-74
2021/12/25 02:56:16;;;;;;;31.17;18.80;;;;;;;1.19;100.00;100743.38;5052047;28;20429;-74
2021/12/25 02:58:41;;;;;;;33.10;20.13;;;;;;;1.18;100.00;100754.78;5051167;28;20033;-74
2021/12/25 03:01:10;;;;;;;34.58;19.83;;;;;;;1.15;100.00;100745.34;5052028;28;20033;-73
2021/12/25 03:03:36;;;;;;;33.00;19.35;;;;;;;1.17;100.00;100746.09;5051718;28;20093;-73
2021/12/25 03:06:05;;;;;;;36.85;19.77;;;;;;;1.16;100.00;100743.56;5051206;28;20067;-74
2021/12/25 03:08:31;;;;;;;35.50;19.65;;;;;;;1.13;100.00;100751.56;5051891;28;20147;-73
2021/12/25 03:10:57;;;;;;;38.92;19.83;;;;;;;1.11;100.00;100753.44;5051504;28;20476;-74
2021/12/25 03:13:35;;;;;;;33.70;19.80;;;;;;;1.10;100.00;100754.34;5055909;28;20491;-74
2021/12/25 03:16:03;;;;;;;33.60;19.77;;;;;;;1.03;100.00;100752.06;5055366;28;20041;-74
2021/12/25 03:18:34;;;;;;;35.88;19.27;;;;;;;0.99;100.00;100750.53;5054437;28;20044;-73
2021/12/25 03:21:02;;;;;;;30.33;18.70;;;;;;;0.96;100.00;100760.31;5055218;28;20025;-74
2021/12/25 03:23:30;;;;;;;32.78;19.90;;;;;;;0.91;100.00;100759.69;5055918;28;20056;-74
2021/12/25 03:25:58;;;;;;;38.97;20.15;;;;;;;0.90;100.00;100761.47;5055350;28;20107;-74
2021/12/25 03:28:29;;;;;;;35.28;19.63;;;;;;;0.88;100.00;100761.56;5055851;28;20043;-74
2021/12/25 03:30:59;;;;;;;34.13;19.02;;;;;;;0.88;100.00;100771.19;5055217;28;20060;-74
2021/12/25 03:33:27;;;;;;;36.60;19.98;;;;;;;0.84;100.00;100774.91;5055355;28;20130;-74
2021/12/25 03:35:52;;;;;;;32.35;18.77;;;;;;;0.82;100.00;100776.72;5055384;28;20500;-74
2021/12/25 03:38:19;;;;;;;29.90;18.10;;;;;;;0.79;100.00;100775.13;5055817;28;20037;-73
2021/12/25 03:40:46;;;;;;;32.85;19.25;;;;;;;0.77;100.00;100776.97;5054842;28;20033;-74
2021/12/25 03:43:12;;;;;;;33.97;20.15;;;;;;;0.77;100.00;100781.38;5054061;28;20107;-73
2021/12/25 03:45:38;;;;;;;32.35;19.23;;;;;;;0.74;100.00;100773.66;5054242;28;20029;-74
2021/12/25 03:48:13;;;;;;;36.72;20.05;;;;;;;0.73;100.00;100782.44;5054914;28;20340;-74
2021/12/25 03:58:58;;;;;;;34.97;19.23;;;;;;;0.71;100.00;100790.38;5042627;28;20048;-74
2021/12/25 04:04:06;;;;;;;40.17;19.70;;;;;;;0.70;100.00;100792.16;5054867;28;20044;-74
2021/12/25 04:06:32;;;;;;;35.90;20.33;;;;;;;0.69;100.00;100802.72;5055111;28;20461;-74
2021/12/25 04:09:00;;;;;;;33.55;19.98;;;;;;;0.64;100.00;100795.09;5054790;28;20032;-74
2021/12/25 04:11:28;;;;;;;34.95;19.80;;;;;;;0.64;100.00;100800.31;5055397;28;20037;-74
2021/12/25 04:13:55;;;;;;;39.90;19.65;;;;;;;0.61;100.00;100803.09;5054577;28;20116;-73
2021/12/25 04:16:20;;;;;;;36.47;19.35;;;;;;;0.60;100.00;100806.63;5055519;28;20182;-73
2021/12/25 04:18:46;;;;;;;38.88;19.98;;;;;;;0.59;100.00;100801.47;5056679;28;20029;-74
2021/12/25 04:21:11;;;;;;;37.08;19.02;;;;;;;0.60;100.00;100813.63;5055317;28;20033;-73
2021/12/25 04:23:40;;;;;;;41.67;21.27;;;;;;;0.59;100.00;100815.41;5054066;28;20037;-73
2021/12/25 04:26:05;;;;;;;36.50;20.10;;;;;;;0.55;100.00;100813.00;5053508;28;20068;-73
2021/12/25 04:28:44;;;;;;;38.95;20.50;;;;;;;0.53;100.00;100810.47;5054959;28;20393;-73
2021/12/25 05:06:01;;;;;;;44.25;22.25;;;;;;;0.29;100.00;100852.63;5053661;28;20037;-72
2021/12/25 05:08:27;;;;;;;48.05;22.63;;;;;;;0.27;100.00;100859.69;5053656;28;20473;-73
2021/12/25 05:10:54;;;;;;;44.65;22.52;;;;;;;0.25;100.00;100852.84;5053723;28;20033;-73
2021/12/25 05:13:20;;;;;;;45.05;22.20;;;;;;;0.22;100.00;100850.38;5053354;28;20033;-73
2021/12/25 05:15:47;;;;;;;44.65;22.70;;;;;;;0.19;100.00;100853.97;5053515;28;20036;-73
2021/12/25 05:18:12;;;;;;;42.72;22.05;;;;;;;0.17;100.00;100856.66;5053277;28;20112;-73
2021/12/25 05:20:38;;;;;;;46.15;23.25;;;;;;;0.16;100.00;100860.22;5052417;28;20410;-73
2021/12/25 05:23:03;;;;;;;50.35;24.45;;;;;;;0.16;100.00;100859.34;5053198;28;20035;-73
2021/12/25 05:25:29;;;;;;;56.63;23.83;;;;;;;0.15;100.00;100855.88;5053686;28;20481;-73
2021/12/25 05:27:54;;;;;;;48.92;22.90;;;;;;;0.13;100.00;100859.50;5053635;28;20029;-73
2021/12/25 05:30:20;;;;;;;45.60;22.95;;;;;;;0.12;100.00;100861.28;5052677;28;20473;-74
2021/12/25 05:32:45;;;;;;;50.38;23.52;;;;;;;0.12;100.00;100870.88;5052257;28;20029;-73
2021/12/25 05:35:11;;;;;;;45.80;21.33;;;;;;;0.08;100.00;100869.34;5052269;28;20470;-73
2021/12/25 05:37:37;;;;;;;49.35;22.30;;;;;;;0.01;100.00;100863.53;5053575;28;20052;-73
2021/12/25 05:40:05;;;;;;;51.42;22.75;;;;;;;-0.04;100.00;100876.81;5052795;28;20033;-73
2021/12/25 05:42:31;;;;;;;57.03;22.58;;;;;;;-0.07;100.00;100871.72;5052889;28;20082;-73
2021/12/25 05:44:56;;;;;;;53.67;21.33;;;;;;;-0.08;100.00;100880.47;5053036;28;20525;-73
2021/12/25 05:47:22;;;;;;;48.50;21.13;;;;;;;-0.13;100.00;100873.78;5052756;28;20458;-73
2021/12/25 05:49:47;;;;;;;41.90;19.90;;;;;;;-0.16;100.00;100874.75;5053005;28;20480;-72
2021/12/25 05:52:13;;;;;;;42.10;20.23;;;;;;;-0.20;100.00;100881.03;5052714;28;20156;-73
2021/12/25 05:54:39;;;;;;;41.33;20.08;;;;;;;-0.23;100.00;100881.19;5053037;28;20036;-73
2021/12/25 05:57:04;;;;;;;44.85;19.83;;;;;;;-0.25;100.00;100880.41;5051145;28;20041;-74
2021/12/25 05:59:29;;;;;;;41.88;19.92;;;;;;;-0.28;100.00;100893.63;5052784;28;20112;-73
2021/12/25 06:01:55;;;;;;;41.28;19.83;;;;;;;-0.28;100.00;100896.25;5052603;28;20033;-73
2021/12/25 06:04:20;;;;;;;41.50;18.80;;;;;;;-0.32;100.00;100898.13;5052516;28;20090;-73
2021/12/25 06:06:46;;;;;;;42.97;19.95;;;;;;;-0.32;100.00;100899.91;5052824;28;20493;-73
2021/12/25 06:09:11;;;;;;;42.60;19.40;;;;;;;-0.36;100.00;100900.03;5052363;28;20036;-73
2021/12/25 06:11:37;;;;;;;41.30;19.77;;;;;;;-0.38;100.00;100907.09;5052426;28;20399;-73
2021/12/25 06:14:16;;;;;;;37.00;18.67;;;;;;;-0.41;100.00;100909.00;5052394;28;20036;-73
2021/12/25 06:16:41;;;;;;;38.85;17.85;;;;;;;-0.47;100.00;100907.50;5052361;28;20040;-73
2021/12/25 06:19:07;;;;;;;36.00;17.67;;;;;;;-0.49;100.00;100906.72;5052243;28;20029;-73
2021/12/25 06:21:32;;;;;;;30.52;16.83;;;;;;;-0.52;100.00;100917.31;5052230;28;20377;-72
2021/12/25 06:24:01;;;;;;;34.53;16.05;;;;;;;-0.54;100.00;100913.91;5052276;28;20029;-73
2021/12/25 06:26:26;;;;;;;34.55;15.57;;;;;;;-0.56;100.00;100910.50;5051729;28;20040;-73
2021/12/25 06:28:51;;;;;;;30.45;15.35;;;;;;;-0.57;100.00;100919.25;5052083;28;20029;-73
2021/12/25 06:31:17;;;;;;;25.83;15.80;;;;;;;-0.58;100.00;100918.41;5051563;28;20083;-73
2021/12/25 06:33:42;;;;;;;23.95;12.95;;;;;;;-0.60;100.00;100922.00;5052371;28;20405;-73
2021/12/25 06:36:08;;;;;;;19.23;11.18;;;;;;;-0.64;100.00;100923.03;5052100;28;20033;-77
2021/12/25 06:38:33;;;;;;;26.60;12.60;;;;;;;-0.69;100.00;100925.84;5052245;28;20044;-73
2021/12/25 06:40:59;;;;;;;12.75;9.25;;;;;;;-0.77;100.00;100936.63;5051952;28;20045;-73
2021/12/25 06:43:24;;;;;;;16.35;8.93;;;;;;;-0.81;100.00;100928.97;5051286;28;20053;-73
2021/12/25 06:45:49;;;;;;;15.40;8.90;;;;;;;-0.87;100.00;100935.31;5051722;28;20091;-73
2021/12/25 06:48:15;;;;;;;17.33;9.40;;;;;;;-0.90;100.00;100936.31;5051802;28;20040;-74
2021/12/25 06:50:40;;;;;;;16.63;8.73;;;;;;;-0.95;100.00;100934.78;5052207;28;20048;-73
2021/12/25 06:53:06;;;;;;;13.93;8.23;;;;;;;-0.99;100.00;100938.44;5052222;28;20055;-73
2021/12/25 06:55:31;;;;;;;13.23;8.23;;;;;;;-1.02;100.00;100931.56;5051287;28;20029;-73
2021/12/25 06:57:58;;;;;;;11.65;6.60;;;;;;;-1.05;100.00;100934.31;5051877;28;20074;-73
2021/12/25 07:00:24;;;;;;;8.45;6.20;;;;;;;-1.10;100.00;100936.25;5051308;28;20400;-73
2021/12/25 07:02:50;;;;;;;13.52;6.70;;;;;;;-1.16;100.00;100942.56;5051973;28;20059;-73
2021/12/25 07:05:15;;;;;;;8.50;5.90;;;;;;;-1.20;100.00;100937.53;5051525;28;20180;-74
2021/12/25 07:07:41;;;;;;;11.55;5.35;;;;;;;-1.26;100.00;100946.47;5052262;28;20032;-72
2021/12/25 07:10:07;;;;;;;7.25;5.22;;;;;;;-1.32;100.00;100949.31;5050850;28;20040;-73
2021/12/25 07:12:36;;;;;;;9.48;5.18;;;;;;;-1.36;100.00;100953.78;5051277;28;20370;-73
2021/12/25 07:15:06;;;;;;;9.15;5.05;;;;;;;-1.44;100.00;100959.31;5050594;28;20028;-73
2021/12/25 07:17:32;;;;;;;8.50;4.78;;;;;;;-1.54;100.00;100957.97;5051312;28;20075;-73
2021/12/25 07:19:57;;;;;;;9.45;5.05;;;;;;;-1.65;100.00;100962.75;5050764;28;20033;-73
2021/12/25 07:22:23;;;;;;;8.38;5.07;;;;;;;-1.78;100.00;100962.34;5051509;28;20443;-73
2021/12/25 07:24:48;;;;;;;7.05;4.68;;;;;;;-1.91;100.00;100967.19;5051820;28;20450;-73
2021/12/25 07:27:14;;;;;;;8.00;4.70;;;;;;;-2.04;100.00;100961.56;5051743;28;20033;-73
2021/12/25 07:29:39;;;;;;;12.20;5.10;;;;;;;-2.14;100.00;100960.19;5051040;28;20045;-73
2021/12/25 07:32:05;;;;;;;10.30;5.25;;;;;;;-2.24;100.00;100969.22;5051785;28;20037;-73
2021/12/25 07:34:30;;;;;;;8.77;4.70;;;;;;;-2.34;100.00;100969.56;5051301;28;20044;-73
2021/12/25 07:36:56;;;;;;;11.48;5.10;;;;;;;-2.43;100.00;100980.31;5051859;28;20032;-74
2021/12/25 07:39:21;;;;;;;7.55;5.22;;;;;;;-2.51;100.00;100977.09;5051347;28;20466;-73
2021/12/25 07:41:47;;;;;;;12.50;6.22;;;;;;;-2.58;100.00;100971.25;5051831;28;20106;-73
2021/12/25 07:44:12;;;;;;;15.73;7.28;;;;;;;-2.64;100.00;100978.41;5051903;28;20056;-73
2021/12/25 07:46:38;;;;;;;13.05;4.68;;;;;;;-2.72;100.00;100983.88;5051250;28;20072;-73
2021/12/25 07:49:04;;;;;;;7.50;5.18;;;;;;;-2.78;100.00;100981.47;5051951;28;20029;-73
2021/12/25 07:51:30;;;;;;;10.88;5.63;;;;;;;-2.85;100.00;100986.88;5051060;28;20064;-73
2021/12/25 07:53:55;;;;;;;7.55;4.90;;;;;;;-2.90;100.00;100985.31;5051766;28;20489;-73
2021/12/25 07:56:25;;;;;;;8.95;5.30;;;;;;;-2.95;100.00;100995.06;5050999;28;20029;-74
2021/12/25 07:58:51;;;;;;;11.77;5.97;;;;;;;-3.01;100.00;100996.94;5054508;28;20047;-73
2021/12/25 08:01:17;;;;;;;9.40;5.72;;;;;;;-3.04;100.00;101004.84;5055403;28;20044;-74
2021/12/25 08:03:42;;;;;;;8.70;5.70;;;;;;;-3.07;100.00;101001.50;5055174;28;20130;-73
2021/12/25 08:06:08;;;;;;;10.60;6.18;;;;;;;-3.09;100.00;101011.09;5055163;28;20083;-73
2021/12/25 08:08:33;;;;;;;8.00;5.20;;;;;;;-3.14;100.00;101005.19;5055003;28;20216;-73
2021/12/25 08:10:58;;;;;;;10.63;5.72;;;;;;;-3.16;100.00;101004.34;5055145;28;20370;-73
2021/12/25 08:13:24;;;;;;;13.75;6.22;;;;;;;-3.17;100.00;101000.91;5053247;28;20029;-74
2021/12/25 08:15:49;;;;;;;10.55;5.60;;;;;;;-3.20;100.00;101004.44;5055226;28;20393;-73
2021/12/25 08:18:15;;;;;;;9.13;5.25;;;;;;;-3.19;100.00;101011.38;5054949;28;20033;-73
2021/12/25 08:20:41;;;;;;;9.23;4.80;;;;;;;-3.21;100.00;101010.59;5054644;28;20040;-73
2021/12/25 08:23:07;;;;;;;9.30;4.88;;;;;;;-3.22;100.00;101019.28;5054861;28;20040;-74
2021/12/25 08:25:33;;;;;;;7.68;5.05;;;;;;;-3.22;100.00;101024.47;5054412;28;20033;-73
2021/12/25 08:27:59;;;;;;;9.13;5.80;;;;;;;-3.21;100.00;101030.53;5054936;28;20029;-73
2021/12/25 08:30:28;;;;;;;10.57;5.45;;;;;;;-3.21;100.00;101038.34;5054291;28;20052;-73
2021/12/25 08:32:57;;;;;;;6.78;4.72;;;;;;;-3.20;100.00;101029.63;5054588;28;20040;-72
2021/12/25 08:35:24;;;;;;;9.35;5.00;;;;;;;-3.19;100.00;101040.00;5056367;28;20027;-74
2021/12/25 08:37:50;;;;;;;13.73;5.45;;;;;;;-3.15;100.00;101034.72;5054913;28;20028;-73
2021/12/25 08:40:16;;;;;;;15.50;5.80;;;;;;;-3.13;100.00;101043.34;5052754;28;20033;-74
2021/12/25 08:42:51;;;;;;;8.35;4.65;;;;;;;-3.12;100.00;101045.91;5051731;28;20048;-74
2021/12/25 08:45:39;;;;;;;9.00;4.40;;;;;;;-3.10;100.00;101048.44;5053314;28;20043;-74
2021/12/25 08:48:12;;;;;;;4.82;3.35;;;;;;;-3.10;100.00;101051.06;5053067;28;20037;-75
2021/12/25 08:50:39;;;;;;;6.65;3.50;;;;;;;-3.09;100.00;101053.59;5051867;28;20539;-75
2021/12/25 08:53:04;;;;;;;4.95;3.63;;;;;;;-3.07;100.00;101061.38;5052533;28;20072;-75
2021/12/25 08:55:30;;;;;;;4.22;3.03;;;;;;;-3.09;100.00;101058.81;5051281;28;20106;-75
2021/12/25 08:57:55;;;;;;;3.75;2.90;;;;;;;-3.07;100.00;101061.38;5051879;28;20061;-75
2021/12/25 09:00:21;;;;;;;3.42;2.40;;;;;;;-3.07;100.00;101063.97;5051446;28;20037;-76
2021/12/25 09:02:47;;;;;;;6.95;3.30;;;;;;;-3.06;100.00;101069.13;5050967;28;20037;-75
2021/12/25 09:05:13;;;;;;;3.90;2.42;;;;;;;-3.05;100.00;101072.59;5051566;28;20584;-76
2021/12/25 09:07:38;;;;;;;3.10;2.20;;;;;;;-3.02;100.00;101072.47;5051154;28;20168;-76
2021/12/25 09:10:04;;;;;;;4.88;2.33;;;;;;;-2.98;100.00;101076.72;5049314;28;20473;-75
2021/12/25 09:12:33;;;;;;;10.98;2.35;;;;;;;-2.96;100.00;101076.66;5051268;28;20044;-74
2021/12/25 09:14:58;;;;;;;4.03;2.10;;;;;;;-2.92;100.00;101078.28;5051256;28;20033;-76
2021/12/25 09:17:23;;;;;;;3.58;2.75;;;;;;;-2.89;100.00;101079.03;5051485;28;20078;-76
2021/12/25 09:19:49;;;;;;;3.25;1.80;;;;;;;-2.86;100.00;101081.53;5051160;28;20033;-76
2021/12/25 09:22:14;;;;;;;4.30;2.60;;;;;;;-2.83;99.94;101084.03;5051494;28;20037;-76
2021/12/25 09:24:40;;;;;;;3.17;2.03;;;;;;;-2.80;99.53;101075.28;5050881;28;20104;-75
2021/12/25 09:27:06;;;;;;;3.20;2.45;;;;;;;-2.76;99.60;101076.91;5051468;28;20041;-77
2021/12/25 09:29:32;;;;;;;3.45;2.42;;;;;;;-2.72;99.04;101080.25;5048573;28;20059;-76
2021/12/25 09:31:58;;;;;;;2.72;2.10;;;;;;;-2.71;98.47;101081.97;5047785;28;20033;-75
2021/12/25 09:34:23;;;;;;;3.22;2.38;;;;;;;-2.67;97.57;101076.59;5053143;28;20079;-76
2021/12/25 09:36:49;;;;;;;6.18;3.20;;;;;;;-2.62;97.37;101089.50;5053379;28;20032;-75
2021/12/25 09:39:15;;;;;;;3.33;2.53;;;;;;;-2.60;96.39;101087.69;5053528;28;20037;-75
2021/12/25 09:41:41;;;;;;;7.97;2.55;;;;;;;-2.53;96.40;101083.97;5053153;28;20037;-76
2021/12/25 09:44:06;;;;;;;5.00;2.80;;;;;;;-2.49;96.31;101087.34;5046778;28;20056;-74
2021/12/25 09:46:33;;;;;;;3.90;2.42;;;;;;;-2.43;95.68;101089.75;5034843;28;20040;-75
2021/12/25 09:48:58;;;;;;;3.42;2.40;;;;;;;-2.36;95.82;101093.88;5032580;28;20040;-78
2021/12/25 09:51:24;;;;;;;4.47;2.30;;;;;;;-2.28;96.22;101095.34;5032550;28;20026;-76
2021/12/25 09:54:06;;;;;;;7.80;2.95;;;;;;;-2.22;95.68;101114.25;5032477;28;20064;-76
2021/12/25 09:56:33;;;;;;;4.82;2.35;;;;;;;-2.18;94.06;101100.25;5032539;28;20494;-73
2021/12/25 09:58:58;;;;;;;4.45;2.63;;;;;;;-2.16;93.37;101103.63;5032068;28;20314;-75
2021/12/25 10:01:41;;;;;;;4.88;2.70;;;;;;;-2.10;92.92;101112.16;5032814;28;20060;-73
2021/12/25 10:04:09;;;;;;;5.50;2.70;;;;;;;-2.08;93.12;101112.97;5032289;28;20055;-75
2021/12/25 10:06:37;;;;;;;4.53;2.58;;;;;;;-2.04;92.74;101112.81;5032177;28;20029;-73
2021/12/25 10:09:21;;;;;;;3.47;2.60;;;;;;;-1.95;92.32;101112.47;5030511;28;20037;-77
2021/12/25 10:12:08;;;;;;;4.13;2.67;;;;;;;-1.88;91.84;101109.66;5030605;28;20038;-78
2021/12/25 10:14:35;;;;;;;6.13;3.90;;;;;;;-1.80;91.37;101115.47;5032278;28;20025;-77
2021/12/25 10:17:21;;;;;;;4.35;2.85;;;;;;;-1.79;90.54;101111.97;5035683;28;20205;-75
2021/12/25 10:20:07;;;;;;;4.57;2.50;;;;;;;-1.75;90.15;101103.13;5031581;28;20037;-74
2021/12/25 10:22:34;;;;;;;4.15;2.35;;;;;;;-1.80;89.03;101105.03;5031866;28;20026;-75
2021/12/25 10:25:11;;;;;;;6.68;2.42;;;;;;;-1.88;88.40;101100.09;5031600;28;20036;-76
2021/12/25 10:27:47;;;;;;;2.05;1.90;;;;;;;-2.00;87.64;101110.94;5049658;28;20033;-74
2021/12/25 10:30:13;;;;;;;5.13;2.50;;;;;;;-2.05;87.92;101105.03;5051447;28;20039;-75
2021/12/25 10:32:39;;;;;;;2.35;1.77;;;;;;;-2.08;88.30;101107.75;5051985;28;20132;-77
2021/12/25 10:35:17;;;;;;;3.83;2.20;;;;;;;-2.23;86.95;101109.94;5051253;28;20383;-75
2021/12/25 10:37:44;;;;;;;2.40;1.90;;;;;;;-2.28;87.25;101113.59;5051634;28;20025;-77
2021/12/25 10:40:32;;;;;;;2.05;1.80;;;;;;;-2.29;88.30;101114.53;5051461;28;20489;-76
2021/12/25 10:43:03;;;;;;;1.92;1.48;;;;;;;-2.28;88.21;101122.28;5051181;28;20045;-77
2021/12/25 10:45:33;;;;;;;3.75;1.70;;;;;;;-2.24;87.08;101120.44;5052399;28;20481;-84
2021/12/25 10:48:04;;;;;;;1.80;1.70;;;;;;;-2.17;87.10;101111.50;5052765;28;20120;-75
2021/12/25 10:50:40;;;;;;;3.65;1.58;;;;;;;-2.02;87.25;101117.97;5051567;28;20495;-77
2021/12/25 10:53:23;;;;;;;2.42;1.40;;;;;;;-1.86;86.54;101118.31;5051346;28;20032;-75
2021/12/25 10:55:49;;;;;;;1.73;1.45;;;;;;;-1.78;83.58;101111.06;5050112;28;20075;-76
2021/12/25 10:58:20;;;;;;;2.13;1.83;;;;;;;-1.68;84.49;101109.00;5051581;28;20029;-76
2021/12/25 11:00:50;;;;;;;2.40;1.50;;;;;;;-1.54;84.53;101095.44;5051160;28;20021;-79
2021/12/25 11:03:16;;;;;;;1.38;1.27;;;;;;;-1.43;83.14;101101.13;5051172;28;20381;-74
2021/12/25 11:05:47;;;;;;;2.22;1.45;;;;;;;-1.36;82.08;101097.38;5051378;28;20033;-76
2021/12/25 11:08:18;;;;;;;4.70;1.55;;;;;;;-1.28;80.26;101102.34;5051454;28;20033;-76
2021/12/25 11:10:50;;;;;;;2.17;1.38;;;;;;;-1.06;81.96;101099.75;5051422;28;20036;-74
2021/12/25 11:13:35;;;;;;;3.22;1.58;;;;;;;-0.87;80.23;101096.44;5050956;28;20044;-77
2021/12/25 11:16:14;;;;;;;2.28;1.15;;;;;;;-0.77;79.51;101106.47;5047603;28;20033;-76
2021/12/25 11:19:09;;;;;;;2.45;1.30;;;;;;;-0.75;79.82;101104.69;5048329;28;20029;-75
2021/12/25 11:21:46;;;;;;;2.55;1.58;;;;;;;-0.73;81.07;101109.84;5049983;28;20465;-79
2021/12/25 11:24:26;;;;;;;2.22;1.42;;;;;;;-0.75;79.61;101102.06;5049465;28;20480;-75
2021/12/25 11:26:55;;;;;;;2.70;1.70;;;;;;;-0.81;77.91;101102.28;5050614;28;20025;-76
2021/12/25 11:29:23;;;;;;;2.60;1.30;;;;;;;-0.61;77.67;101098.03;5051210;28;20056;-75
2021/12/25 11:31:49;;;;;;;1.98;1.50;;;;;;;-0.32;77.34;101090.78;5049831;28;20033;-84
2021/12/25 11:34:16;;;;;;;4.75;1.20;;;;;;;-0.04;73.31;101095.72;5054845;28;20097;-75
2021/12/25 11:36:48;;;;;;;5.75;1.48;;;;;;;0.28;75.56;101094.31;5055166;28;20033;-75
2021/12/25 11:39:20;;;;;;;1.95;1.45;;;;;;;0.45;73.02;101101.47;5053161;28;20033;-75
2021/12/25 11:41:46;;;;;;;;;;;;;;;0.44;73.10;101102.38;5055768;28;20484;-76
2021/12/25 11:44:39;;;;;;;2.40;1.13;;;;;;;0.62;72.96;101090.22;5054038;28;19923;-75
2021/12/25 11:47:06;;;;;;;1.67;1.25;;;;;;;0.78;71.88;101087.78;5054735;28;20025;-76
2021/12/25 11:49:32;;;;;;;2.47;1.10;;;;;;;0.53;72.52;101083.63;5055068;28;20025;-76
2021/12/25 11:52:19;;;;;;;5.60;2.38;;;;;;;0.38;72.53;101088.72;5055760;28;20037;-79
2021/12/25 12:00:42;;;;;;;1.50;1.17;;;;;;;0.04;73.69;101091.00;5054304;28;20029;-78
2021/12/25 12:03:08;;;;;;;1.77;1.20;;;;;;;0.02;73.69;101086.78;5053352;28;20067;-77
2021/12/25 12:05:35;;;;;;;1.10;1.00;;;;;;;0.04;73.45;101084.94;5054025;28;20040;-77
2021/12/25 12:08:06;;;;;;;2.40;1.58;;;;;;;0.19;73.89;101080.81;5054118;28;20060;-77
2021/12/25 12:10:44;;;;;;;2.23;1.30;;;;;;;0.48;72.08;101079.53;5052914;28;20438;-80
2021/12/25 12:13:27;;;;;;;1.88;1.25;;;;;;;0.75;70.73;101076.56;5053965;28;20063;-75
2021/12/25 12:16:00;;;;;;;3.67;1.48;;;;;;;0.90;69.89;101083.75;5054309;28;20021;-79
2021/12/25 12:18:26;;;;;;;1.75;1.10;;;;;;;1.21;68.87;101072.66;5054591;28;20422;-76
2021/12/25 12:21:04;;;;;;;1.23;1.10;;;;;;;1.49;68.64;101070.47;5053434;28;20116;-76
2021/12/25 12:26:45;;;;;;;1.55;1.15;;;;;;;2.32;62.82;101070.72;5051268;28;20044;-77
2021/12/25 12:29:12;;;;;;;1.60;1.20;;;;;;;2.79;62.45;101069.94;5053400;28;20037;-78
2021/12/25 12:31:42;;;;;;;1.58;1.10;;;;;;;3.12;59.62;101067.25;5053481;28;20039;-78
2021/12/25 12:34:39;;;;;;;1.27;1.05;;;;;;;3.61;57.09;101063.59;5053590;28;20029;-76
2021/12/25 12:37:13;;;;;;;2.00;1.10;;;;;;;4.10;56.17;101073.03;5053182;28;20028;-77
2021/12/25 12:40:05;;;;;;;5.78;1.73;;;;;;;4.36;56.04;101063.59;5054346;28;20458;-77
2021/12/25 12:45:10;;;;;;;1.70;1.00;;;;;;;4.73;54.75;101050.78;5052033;28;19920;-78
2021/12/25 12:47:36;;;;;;;2.13;1.20;;;;;;;4.93;53.41;101048.66;5053098;28;20043;-79
2021/12/25 12:50:02;;;;;;;2.22;1.00;;;;;;;5.14;53.03;101049.09;5051723;28;20028;-79
2021/12/25 12:52:39;;;;;;;1.83;1.23;;;;;;;5.02;51.16;101037.53;5053301;28;20044;-80